sensor_id;sensor_type;location;lat;lon;timestamp;P1;durP1;ratioP1;P2;durP2;ratioP2
11699;SDS011;5906;51.660;6.674;2022-12-07T00:02:19;21.37;;;15.70;;
11699;SDS011;5906;51.660;6.674;2022-12-07T00:05:07;24.90;;;17.27;;
11699;SDS011;5906;51.660;6.674;2022-12-07T00:07:54;21.03;;;15.53;;
11699;SDS011;5906;51.660;6.674;2022-12-07T00:10:41;24.70;;;17.13;;
11699;SDS011;5906;51.660;6.674;2022-12-07T00:13:29;21.23;;;17.20;;
11699;SDS011;5906;51.660;6.674;2022-12-07T00:16:18;22.90;;;16.10;;
11699;SDS011;5906;51.660;6.674;2022-12-07T00:19:06;21.93;;;16.03;;
11699;SDS011;5906;51.660;6.674;2022-12-07T00:21:54;23.57;;;17.57;;
11699;SDS011;5906;51.660;6.674;2022-12-07T00:24:41;24.40;;;17.57;;
11699;SDS011;5906;51.660;6.674;2022-12-07T00:27:28;27.10;;;18.57;;
11699;SDS011;5906;51.660;6.674;2022-12-07T00:30:15;26.13;;;17.70;;
11699;SDS011;5906;51.660;6.674;2022-12-07T00:33:03;23.50;;;17.53;;
11699;SDS011;5906;51.660;6.674;2022-12-07T00:35:54;25.47;;;17.23;;
11699;SDS011;5906;51.660;6.674;2022-12-07T00:38:43;25.00;;;17.03;;
11699;SDS011;5906;51.660;6.674;2022-12-07T00:41:30;25.67;;;17.80;;
11699;SDS011;5906;51.660;6.674;2022-12-07T00:44:17;27.00;;;18.13;;
11699;SDS011;5906;51.660;6.674;2022-12-07T00:47:04;26.67;;;17.00;;
11699;SDS011;5906;51.660;6.674;2022-12-07T00:49:52;24.67;;;17.30;;
11699;SDS011;5906;51.660;6.674;2022-12-07T00:52:39;26.37;;;17.30;;
11699;SDS011;5906;51.660;6.674;2022-12-07T00:55:26;23.00;;;15.90;;
11699;SDS011;5906;51.660;6.674;2022-12-07T00:58:13;25.20;;;16.60;;
11699;SDS011;5906;51.660;6.674;2022-12-07T01:01:02;25.10;;;16.20;;
11699;SDS011;5906;51.660;6.674;2022-12-07T01:03:51;22.60;;;16.43;;
11699;SDS011;5906;51.660;6.674;2022-12-07T01:06:38;26.27;;;17.90;;
11699;SDS011;5906;51.660;6.674;2022-12-07T01:09:26;25.80;;;16.03;;
11699;SDS011;5906;51.660;6.674;2022-12-07T01:12:13;24.33;;;16.50;;
11699;SDS011;5906;51.660;6.674;2022-12-07T01:15:00;23.67;;;14.87;;
11699;SDS011;5906;51.660;6.674;2022-12-07T01:17:47;24.80;;;15.70;;
11699;SDS011;5906;51.660;6.674;2022-12-07T01:20:35;21.70;;;15.80;;
11699;SDS011;5906;51.660;6.674;2022-12-07T01:23:22;24.20;;;17.07;;
11699;SDS011;5906;51.660;6.674;2022-12-07T01:26:11;23.07;;;15.27;;
11699;SDS011;5906;51.660;6.674;2022-12-07T01:28:59;21.20;;;16.17;;
11699;SDS011;5906;51.660;6.674;2022-12-07T01:31:48;22.17;;;16.17;;
11699;SDS011;5906;51.660;6.674;2022-12-07T01:34:36;21.27;;;16.17;;
11699;SDS011;5906;51.660;6.674;2022-12-07T01:37:23;24.70;;;16.20;;
11699;SDS011;5906;51.660;6.674;2022-12-07T01:40:10;22.63;;;17.20;;
11699;SDS011;5906;51.660;6.674;2022-12-07T01:42:58;23.50;;;16.30;;
11699;SDS011;5906;51.660;6.674;2022-12-07T01:45:45;28.27;;;16.90;;
11699;SDS011;5906;51.660;6.674;2022-12-07T01:48:34;24.60;;;16.90;;
11699;SDS011;5906;51.660;6.674;2022-12-07T01:51:25;20.50;;;15.33;;
11699;SDS011;5906;51.660;6.674;2022-12-07T01:54:14;23.33;;;15.40;;
11699;SDS011;5906;51.660;6.674;2022-12-07T01:57:03;23.47;;;15.73;;
11699;SDS011;5906;51.660;6.674;2022-12-07T01:59:53;20.10;;;14.80;;
11699;SDS011;5906;51.660;6.674;2022-12-07T02:02:44;25.90;;;15.30;;
11699;SDS011;5906;51.660;6.674;2022-12-07T02:05:51;20.00;;;14.30;;
11699;SDS011;5906;51.660;6.674;2022-12-07T02:08:41;20.33;;;15.07;;
11699;SDS011;5906;51.660;6.674;2022-12-07T02:11:29;19.77;;;14.10;;
11699;SDS011;5906;51.660;6.674;2022-12-07T02:14:17;23.40;;;13.80;;
11699;SDS011;5906;51.660;6.674;2022-12-07T02:17:11;22.10;;;13.57;;
11699;SDS011;5906;51.660;6.674;2022-12-07T02:20:28;18.10;;;14.50;;
11699;SDS011;5906;51.660;6.674;2022-12-07T02:26:26;21.10;;;14.57;;
11699;SDS011;5906;51.660;6.674;2022-12-07T02:42:02;22.60;;;16.67;;
11699;SDS011;5906;51.660;6.674;2022-12-07T02:45:00;21.90;;;15.97;;
11699;SDS011;5906;51.660;6.674;2022-12-07T02:47:49;21.93;;;15.33;;
11699;SDS011;5906;51.660;6.674;2022-12-07T02:50:44;20.67;;;15.63;;
11699;SDS011;5906;51.660;6.674;2022-12-07T02:53:38;24.63;;;15.30;;
11699;SDS011;5906;51.660;6.674;2022-12-07T03:11:43;27.93;;;16.00;;
11699;SDS011;5906;51.660;6.674;2022-12-07T03:14:38;24.70;;;15.40;;
11699;SDS011;5906;51.660;6.674;2022-12-07T03:17:31;22.47;;;15.40;;
11699;SDS011;5906;51.660;6.674;2022-12-07T03:20:23;21.17;;;16.50;;
11699;SDS011;5906;51.660;6.674;2022-12-07T03:23:12;23.70;;;15.80;;
11699;SDS011;5906;51.660;6.674;2022-12-07T03:26:01;20.83;;;14.57;;
11699;SDS011;5906;51.660;6.674;2022-12-07T03:28:52;24.53;;;16.13;;
11699;SDS011;5906;51.660;6.674;2022-12-07T03:31:46;30.73;;;15.37;;
11699;SDS011;5906;51.660;6.674;2022-12-07T03:34:51;26.93;;;15.23;;
11699;SDS011;5906;51.660;6.674;2022-12-07T03:37:54;25.07;;;14.03;;
11699;SDS011;5906;51.660;6.674;2022-12-07T03:40:56;24.40;;;16.40;;
11699;SDS011;5906;51.660;6.674;2022-12-07T03:43:46;24.67;;;16.30;;
11699;SDS011;5906;51.660;6.674;2022-12-07T03:58:11;20.57;;;14.47;;
11699;SDS011;5906;51.660;6.674;2022-12-07T04:01:02;24.37;;;15.73;;
11699;SDS011;5906;51.660;6.674;2022-12-07T04:03:50;21.47;;;15.03;;
11699;SDS011;5906;51.660;6.674;2022-12-07T04:06:37;19.67;;;13.67;;
11699;SDS011;5906;51.660;6.674;2022-12-07T04:09:25;20.97;;;14.60;;
11699;SDS011;5906;51.660;6.674;2022-12-07T04:12:12;17.17;;;13.47;;
11699;SDS011;5906;51.660;6.674;2022-12-07T04:14:59;27.73;;;15.63;;
11699;SDS011;5906;51.660;6.674;2022-12-07T04:17:46;20.77;;;12.93;;
11699;SDS011;5906;51.660;6.674;2022-12-07T04:20:34;22.47;;;14.07;;
11699;SDS011;5906;51.660;6.674;2022-12-07T04:23:21;20.07;;;14.43;;
11699;SDS011;5906;51.660;6.674;2022-12-07T04:26:08;22.90;;;14.97;;
11699;SDS011;5906;51.660;6.674;2022-12-07T04:28:55;26.50;;;13.47;;
11699;SDS011;5906;51.660;6.674;2022-12-07T04:31:42;21.07;;;14.47;;
11699;SDS011;5906;51.660;6.674;2022-12-07T04:34:30;21.87;;;15.63;;
11699;SDS011;5906;51.660;6.674;2022-12-07T04:37:17;23.80;;;15.03;;
11699;SDS011;5906;51.660;6.674;2022-12-07T04:40:05;20.80;;;15.23;;
11699;SDS011;5906;51.660;6.674;2022-12-07T04:42:57;18.97;;;13.23;;
11699;SDS011;5906;51.660;6.674;2022-12-07T04:45:47;26.03;;;14.07;;
11699;SDS011;5906;51.660;6.674;2022-12-07T04:48:35;23.23;;;15.27;;
11699;SDS011;5906;51.660;6.674;2022-12-07T04:51:23;18.57;;;15.53;;
11699;SDS011;5906;51.660;6.674;2022-12-07T04:54:14;17.73;;;13.80;;
11699;SDS011;5906;51.660;6.674;2022-12-07T04:57:02;17.60;;;13.10;;
11699;SDS011;5906;51.660;6.674;2022-12-07T04:59:49;27.30;;;14.63;;
11699;SDS011;5906;51.660;6.674;2022-12-07T05:02:36;22.80;;;14.50;;
11699;SDS011;5906;51.660;6.674;2022-12-07T05:05:24;19.70;;;13.60;;
11699;SDS011;5906;51.660;6.674;2022-12-07T05:08:11;20.67;;;14.20;;
11699;SDS011;5906;51.660;6.674;2022-12-07T05:10:58;27.30;;;14.60;;
11699;SDS011;5906;51.660;6.674;2022-12-07T05:13:46;20.13;;;12.77;;
11699;SDS011;5906;51.660;6.674;2022-12-07T05:16:33;21.93;;;13.80;;
11699;SDS011;5906;51.660;6.674;2022-12-07T05:19:20;19.43;;;14.10;;
11699;SDS011;5906;51.660;6.674;2022-12-07T05:22:07;19.57;;;13.23;;
11699;SDS011;5906;51.660;6.674;2022-12-07T05:24:54;23.60;;;12.90;;
11699;SDS011;5906;51.660;6.674;2022-12-07T05:27:41;17.83;;;12.33;;
11699;SDS011;5906;51.660;6.674;2022-12-07T05:30:28;22.03;;;12.53;;
11699;SDS011;5906;51.660;6.674;2022-12-07T05:33:16;23.37;;;13.00;;
11699;SDS011;5906;51.660;6.674;2022-12-07T05:36:03;16.50;;;10.80;;
11699;SDS011;5906;51.660;6.674;2022-12-07T05:38:51;17.70;;;11.50;;
11699;SDS011;5906;51.660;6.674;2022-12-07T05:41:39;17.10;;;12.40;;
11699;SDS011;5906;51.660;6.674;2022-12-07T05:44:45;16.87;;;12.30;;
11699;SDS011;5906;51.660;6.674;2022-12-07T05:47:33;22.00;;;13.53;;
11699;SDS011;5906;51.660;6.674;2022-12-07T05:50:20;20.13;;;12.80;;
11699;SDS011;5906;51.660;6.674;2022-12-07T05:53:07;15.10;;;12.17;;
11699;SDS011;5906;51.660;6.674;2022-12-07T05:55:54;17.83;;;12.30;;
11699;SDS011;5906;51.660;6.674;2022-12-07T05:58:41;21.27;;;12.20;;
11699;SDS011;5906;51.660;6.674;2022-12-07T06:01:47;26.10;;;11.90;;
11699;SDS011;5906;51.660;6.674;2022-12-07T06:04:36;17.87;;;12.70;;
11699;SDS011;5906;51.660;6.674;2022-12-07T06:07:27;19.50;;;13.57;;
11699;SDS011;5906;51.660;6.674;2022-12-07T06:10:15;18.63;;;12.27;;
11699;SDS011;5906;51.660;6.674;2022-12-07T06:13:02;23.07;;;12.40;;
11699;SDS011;5906;51.660;6.674;2022-12-07T06:15:49;22.87;;;11.70;;
11699;SDS011;5906;51.660;6.674;2022-12-07T06:18:36;18.10;;;13.43;;
11699;SDS011;5906;51.660;6.674;2022-12-07T06:21:23;18.10;;;14.23;;
11699;SDS011;5906;51.660;6.674;2022-12-07T06:24:13;20.13;;;12.17;;
11699;SDS011;5906;51.660;6.674;2022-12-07T06:27:01;15.80;;;12.00;;
11699;SDS011;5906;51.660;6.674;2022-12-07T06:29:48;16.97;;;11.90;;
11699;SDS011;5906;51.660;6.674;2022-12-07T06:32:36;28.63;;;14.27;;
11699;SDS011;5906;51.660;6.674;2022-12-07T06:35:23;20.50;;;12.00;;
11699;SDS011;5906;51.660;6.674;2022-12-07T06:38:10;20.73;;;14.10;;
11699;SDS011;5906;51.660;6.674;2022-12-07T06:40:58;20.00;;;13.50;;
11699;SDS011;5906;51.660;6.674;2022-12-07T06:43:45;16.03;;;12.57;;
11699;SDS011;5906;51.660;6.674;2022-12-07T06:46:39;16.07;;;12.53;;
11699;SDS011;5906;51.660;6.674;2022-12-07T06:49:26;19.53;;;12.93;;
11699;SDS011;5906;51.660;6.674;2022-12-07T06:52:14;19.97;;;12.87;;
11699;SDS011;5906;51.660;6.674;2022-12-07T06:55:01;14.53;;;11.60;;
11699;SDS011;5906;51.660;6.674;2022-12-07T06:57:48;21.60;;;12.87;;
11699;SDS011;5906;51.660;6.674;2022-12-07T07:00:35;15.60;;;12.20;;
11699;SDS011;5906;51.660;6.674;2022-12-07T07:03:22;22.20;;;13.80;;
11699;SDS011;5906;51.660;6.674;2022-12-07T07:06:10;13.33;;;11.03;;
11699;SDS011;5906;51.660;6.674;2022-12-07T07:08:57;21.90;;;13.30;;
11699;SDS011;5906;51.660;6.674;2022-12-07T07:11:45;16.20;;;13.07;;
11699;SDS011;5906;51.660;6.674;2022-12-07T07:14:31;20.10;;;13.47;;
11699;SDS011;5906;51.660;6.674;2022-12-07T07:17:19;16.43;;;12.60;;
11699;SDS011;5906;51.660;6.674;2022-12-07T07:20:06;15.60;;;12.30;;
11699;SDS011;5906;51.660;6.674;2022-12-07T07:22:54;19.13;;;13.17;;
11699;SDS011;5906;51.660;6.674;2022-12-07T07:25:42;15.73;;;14.10;;
11699;SDS011;5906;51.660;6.674;2022-12-07T07:28:29;22.03;;;12.93;;
11699;SDS011;5906;51.660;6.674;2022-12-07T07:31:16;15.30;;;12.20;;
11699;SDS011;5906;51.660;6.674;2022-12-07T07:34:04;14.70;;;11.53;;
11699;SDS011;5906;51.660;6.674;2022-12-07T07:36:51;16.80;;;12.53;;
11699;SDS011;5906;51.660;6.674;2022-12-07T07:39:38;15.83;;;10.80;;
11699;SDS011;5906;51.660;6.674;2022-12-07T07:42:25;17.47;;;12.07;;
11699;SDS011;5906;51.660;6.674;2022-12-07T07:45:12;15.80;;;12.17;;
11699;SDS011;5906;51.660;6.674;2022-12-07T07:47:59;16.07;;;12.50;;
11699;SDS011;5906;51.660;6.674;2022-12-07T07:50:47;19.33;;;12.40;;
11699;SDS011;5906;51.660;6.674;2022-12-07T07:53:34;16.60;;;11.30;;
11699;SDS011;5906;51.660;6.674;2022-12-07T07:56:21;14.67;;;11.77;;
11699;SDS011;5906;51.660;6.674;2022-12-07T07:59:08;20.97;;;11.70;;
11699;SDS011;5906;51.660;6.674;2022-12-07T08:01:56;11.70;;;9.77;;
11699;SDS011;5906;51.660;6.674;2022-12-07T08:04:43;16.70;;;11.53;;
11699;SDS011;5906;51.660;6.674;2022-12-07T08:07:31;16.20;;;11.47;;
11699;SDS011;5906;51.660;6.674;2022-12-07T08:10:18;15.20;;;10.80;;
11699;SDS011;5906;51.660;6.674;2022-12-07T08:13:05;16.60;;;10.97;;
11699;SDS011;5906;51.660;6.674;2022-12-07T08:16:03;14.63;;;10.60;;
11699;SDS011;5906;51.660;6.674;2022-12-07T08:18:57;15.47;;;9.83;;
11699;SDS011;5906;51.660;6.674;2022-12-07T08:21:45;13.63;;;10.10;;
11699;SDS011;5906;51.660;6.674;2022-12-07T08:24:33;11.43;;;8.87;;
11699;SDS011;5906;51.660;6.674;2022-12-07T08:27:21;12.40;;;9.87;;
11699;SDS011;5906;51.660;6.674;2022-12-07T08:30:13;12.70;;;9.30;;
11699;SDS011;5906;51.660;6.674;2022-12-07T08:33:00;17.33;;;10.57;;
11699;SDS011;5906;51.660;6.674;2022-12-07T08:35:47;14.40;;;10.53;;
11699;SDS011;5906;51.660;6.674;2022-12-07T08:38:35;16.03;;;10.53;;
11699;SDS011;5906;51.660;6.674;2022-12-07T08:41:23;11.70;;;9.70;;
11699;SDS011;5906;51.660;6.674;2022-12-07T08:44:10;24.17;;;11.60;;
11699;SDS011;5906;51.660;6.674;2022-12-07T08:46:58;13.50;;;10.13;;
11699;SDS011;5906;51.660;6.674;2022-12-07T08:49:48;17.13;;;10.63;;
11699;SDS011;5906;51.660;6.674;2022-12-07T08:52:37;12.73;;;9.73;;
11699;SDS011;5906;51.660;6.674;2022-12-07T08:55:27;9.63;;;8.63;;
11699;SDS011;5906;51.660;6.674;2022-12-07T08:58:15;14.23;;;9.23;;
11699;SDS011;5906;51.660;6.674;2022-12-07T09:01:02;11.67;;;8.53;;
11699;SDS011;5906;51.660;6.674;2022-12-07T09:03:50;16.30;;;9.00;;
11699;SDS011;5906;51.660;6.674;2022-12-07T09:06:37;12.90;;;8.60;;
11699;SDS011;5906;51.660;6.674;2022-12-07T09:09:25;12.17;;;9.27;;
11699;SDS011;5906;51.660;6.674;2022-12-07T09:12:11;15.20;;;8.70;;
11699;SDS011;5906;51.660;6.674;2022-12-07T09:14:59;13.00;;;9.33;;
11699;SDS011;5906;51.660;6.674;2022-12-07T09:17:48;11.60;;;8.90;;
11699;SDS011;5906;51.660;6.674;2022-12-07T09:20:35;9.73;;;7.30;;
11699;SDS011;5906;51.660;6.674;2022-12-07T09:23:23;12.40;;;8.50;;
11699;SDS011;5906;51.660;6.674;2022-12-07T09:26:10;14.20;;;9.83;;
11699;SDS011;5906;51.660;6.674;2022-12-07T09:28:57;16.53;;;10.10;;
11699;SDS011;5906;51.660;6.674;2022-12-07T09:31:45;17.63;;;11.13;;
11699;SDS011;5906;51.660;6.674;2022-12-07T09:34:32;14.43;;;11.57;;
11699;SDS011;5906;51.660;6.674;2022-12-07T09:37:20;19.63;;;9.37;;
11699;SDS011;5906;51.660;6.674;2022-12-07T09:40:07;22.33;;;11.70;;
11699;SDS011;5906;51.660;6.674;2022-12-07T09:42:55;16.33;;;9.70;;
11699;SDS011;5906;51.660;6.674;2022-12-07T09:45:43;20.57;;;10.53;;
11699;SDS011;5906;51.660;6.674;2022-12-07T09:48:35;14.53;;;9.73;;
11699;SDS011;5906;51.660;6.674;2022-12-07T09:51:25;12.40;;;9.43;;
11699;SDS011;5906;51.660;6.674;2022-12-07T09:54:14;14.40;;;8.97;;
11699;SDS011;5906;51.660;6.674;2022-12-07T09:57:03;13.07;;;9.40;;
11699;SDS011;5906;51.660;6.674;2022-12-07T09:59:50;12.70;;;8.30;;
11699;SDS011;5906;51.660;6.674;2022-12-07T10:02:38;14.63;;;8.70;;
11699;SDS011;5906;51.660;6.674;2022-12-07T10:05:38;14.50;;;8.60;;
11699;SDS011;5906;51.660;6.674;2022-12-07T10:08:29;13.70;;;8.30;;
11699;SDS011;5906;51.660;6.674;2022-12-07T10:11:16;14.23;;;9.17;;
11699;SDS011;5906;51.660;6.674;2022-12-07T10:14:10;13.83;;;8.70;;
11699;SDS011;5906;51.660;6.674;2022-12-07T10:17:00;13.80;;;7.93;;
11699;SDS011;5906;51.660;6.674;2022-12-07T10:19:48;15.30;;;9.00;;
11699;SDS011;5906;51.660;6.674;2022-12-07T10:22:35;15.93;;;7.40;;
11699;SDS011;5906;51.660;6.674;2022-12-07T10:25:25;14.30;;;7.37;;
11699;SDS011;5906;51.660;6.674;2022-12-07T10:28:15;8.03;;;6.40;;
11699;SDS011;5906;51.660;6.674;2022-12-07T10:31:15;9.73;;;6.70;;
11699;SDS011;5906;51.660;6.674;2022-12-07T10:34:03;10.93;;;6.67;;
11699;SDS011;5906;51.660;6.674;2022-12-07T10:40:10;8.37;;;5.30;;
11699;SDS011;5906;51.660;6.674;2022-12-07T10:49:08;9.77;;;5.83;;
11699;SDS011;5906;51.660;6.674;2022-12-07T11:01:42;20.57;;;6.03;;
11699;SDS011;5906;51.660;6.674;2022-12-07T11:11:36;6.80;;;4.23;;
11699;SDS011;5906;51.660;6.674;2022-12-07T11:14:37;6.73;;;4.40;;
11699;SDS011;5906;51.660;6.674;2022-12-07T11:24:15;6.53;;;4.63;;
11699;SDS011;5906;51.660;6.674;2022-12-07T11:30:13;5.57;;;3.80;;
11699;SDS011;5906;51.660;6.674;2022-12-07T11:42:12;7.00;;;5.40;;
11699;SDS011;5906;51.660;6.674;2022-12-07T11:45:24;6.37;;;4.23;;
11699;SDS011;5906;51.660;6.674;2022-12-07T11:48:35;8.83;;;5.20;;
11699;SDS011;5906;51.660;6.674;2022-12-07T11:51:30;8.43;;;5.87;;
11699;SDS011;5906;51.660;6.674;2022-12-07T11:54:21;10.53;;;5.40;;
11699;SDS011;5906;51.660;6.674;2022-12-07T11:57:19;17.77;;;5.13;;
11699;SDS011;5906;51.660;6.674;2022-12-07T12:00:13;10.50;;;5.70;;
11699;SDS011;5906;51.660;6.674;2022-12-07T12:03:08;5.80;;;4.87;;
11699;SDS011;5906;51.660;6.674;2022-12-07T12:05:59;7.57;;;5.67;;
11699;SDS011;5906;51.660;6.674;2022-12-07T12:15:42;7.53;;;4.77;;
11699;SDS011;5906;51.660;6.674;2022-12-07T12:21:56;14.23;;;5.67;;
11699;SDS011;5906;51.660;6.674;2022-12-07T12:24:51;7.90;;;4.20;;
11699;SDS011;5906;51.660;6.674;2022-12-07T12:27:40;8.90;;;4.07;;
11699;SDS011;5906;51.660;6.674;2022-12-07T12:33:26;8.17;;;4.53;;
11699;SDS011;5906;51.660;6.674;2022-12-07T12:36:19;6.60;;;4.93;;
11699;SDS011;5906;51.660;6.674;2022-12-07T12:39:12;9.27;;;5.00;;
11699;SDS011;5906;51.660;6.674;2022-12-07T12:42:00;5.90;;;5.10;;
11699;SDS011;5906;51.660;6.674;2022-12-07T12:45:04;6.20;;;3.90;;
11699;SDS011;5906;51.660;6.674;2022-12-07T12:48:27;10.70;;;4.47;;
11699;SDS011;5906;51.660;6.674;2022-12-07T12:54:27;10.47;;;3.90;;
11699;SDS011;5906;51.660;6.674;2022-12-07T12:57:22;12.43;;;4.17;;
11699;SDS011;5906;51.660;6.674;2022-12-07T13:03:16;9.27;;;5.10;;
11699;SDS011;5906;51.660;6.674;2022-12-07T13:09:20;9.57;;;5.00;;
11699;SDS011;5906;51.660;6.674;2022-12-07T13:12:13;7.00;;;5.33;;
11699;SDS011;5906;51.660;6.674;2022-12-07T13:15:02;9.37;;;5.00;;
11699;SDS011;5906;51.660;6.674;2022-12-07T13:17:55;16.30;;;5.43;;
11699;SDS011;5906;51.660;6.674;2022-12-07T13:23:57;8.93;;;5.60;;
11699;SDS011;5906;51.660;6.674;2022-12-07T13:26:46;6.83;;;4.80;;
11699;SDS011;5906;51.660;6.674;2022-12-07T13:29:36;8.60;;;5.27;;
11699;SDS011;5906;51.660;6.674;2022-12-07T13:32:25;6.70;;;4.53;;
11699;SDS011;5906;51.660;6.674;2022-12-07T13:35:31;7.00;;;4.67;;
11699;SDS011;5906;51.660;6.674;2022-12-07T13:38:27;6.63;;;4.10;;
11699;SDS011;5906;51.660;6.674;2022-12-07T13:41:17;8.83;;;5.60;;
11699;SDS011;5906;51.660;6.674;2022-12-07T13:44:09;6.00;;;4.43;;
11699;SDS011;5906;51.660;6.674;2022-12-07T13:47:19;15.60;;;5.27;;
11699;SDS011;5906;51.660;6.674;2022-12-07T13:53:17;8.97;;;3.67;;
11699;SDS011;5906;51.660;6.674;2022-12-07T13:56:12;5.80;;;4.80;;
11699;SDS011;5906;51.660;6.674;2022-12-07T13:59:02;12.43;;;5.77;;
11699;SDS011;5906;51.660;6.674;2022-12-07T14:01:52;11.37;;;5.10;;
11699;SDS011;5906;51.660;6.674;2022-12-07T14:04:40;8.80;;;4.93;;
11699;SDS011;5906;51.660;6.674;2022-12-07T14:07:28;9.30;;;4.83;;
11699;SDS011;5906;51.660;6.674;2022-12-07T14:10:23;7.90;;;4.60;;
11699;SDS011;5906;51.660;6.674;2022-12-07T14:13:32;9.03;;;4.83;;
11699;SDS011;5906;51.660;6.674;2022-12-07T14:16:29;5.27;;;4.80;;
11699;SDS011;5906;51.660;6.674;2022-12-07T14:19:40;7.63;;;4.40;;
11699;SDS011;5906;51.660;6.674;2022-12-07T14:22:44;6.10;;;4.30;;
11699;SDS011;5906;51.660;6.674;2022-12-07T14:25:46;12.53;;;4.70;;
11699;SDS011;5906;51.660;6.674;2022-12-07T14:28:37;8.63;;;4.93;;
11699;SDS011;5906;51.660;6.674;2022-12-07T14:31:25;5.70;;;4.13;;
11699;SDS011;5906;51.660;6.674;2022-12-07T14:34:16;8.30;;;5.07;;
11699;SDS011;5906;51.660;6.674;2022-12-07T14:37:07;7.37;;;5.60;;
11699;SDS011;5906;51.660;6.674;2022-12-07T14:39:56;10.43;;;5.70;;
11699;SDS011;5906;51.660;6.674;2022-12-07T14:42:43;7.37;;;5.03;;
11699;SDS011;5906;51.660;6.674;2022-12-07T14:45:33;10.40;;;5.70;;
11699;SDS011;5906;51.660;6.674;2022-12-07T14:48:20;9.03;;;5.50;;
11699;SDS011;5906;51.660;6.674;2022-12-07T14:51:28;10.43;;;4.70;;
11699;SDS011;5906;51.660;6.674;2022-12-07T14:54:36;7.07;;;5.10;;
11699;SDS011;5906;51.660;6.674;2022-12-07T14:57:23;8.50;;;5.30;;
11699;SDS011;5906;51.660;6.674;2022-12-07T15:00:13;16.97;;;6.07;;
11699;SDS011;5906;51.660;6.674;2022-12-07T15:03:01;8.53;;;5.93;;
11699;SDS011;5906;51.660;6.674;2022-12-07T15:05:49;7.97;;;5.43;;
11699;SDS011;5906;51.660;6.674;2022-12-07T15:08:36;10.87;;;6.13;;
11699;SDS011;5906;51.660;6.674;2022-12-07T15:11:23;8.20;;;5.63;;
11699;SDS011;5906;51.660;6.674;2022-12-07T15:14:11;10.07;;;6.17;;
11699;SDS011;5906;51.660;6.674;2022-12-07T15:16:58;14.70;;;5.97;;
11699;SDS011;5906;51.660;6.674;2022-12-07T15:19:55;9.37;;;6.10;;
11699;SDS011;5906;51.660;6.674;2022-12-07T15:22:42;10.13;;;6.30;;
11699;SDS011;5906;51.660;6.674;2022-12-07T15:25:29;11.00;;;5.27;;
11699;SDS011;5906;51.660;6.674;2022-12-07T15:28:17;9.60;;;5.97;;
11699;SDS011;5906;51.660;6.674;2022-12-07T15:31:10;7.90;;;6.37;;
11699;SDS011;5906;51.660;6.674;2022-12-07T15:34:18;11.57;;;5.83;;
11699;SDS011;5906;51.660;6.674;2022-12-07T15:37:06;9.50;;;6.20;;
11699;SDS011;5906;51.660;6.674;2022-12-07T15:39:54;9.23;;;6.87;;
11699;SDS011;5906;51.660;6.674;2022-12-07T15:42:41;10.17;;;6.17;;
11699;SDS011;5906;51.660;6.674;2022-12-07T15:45:28;9.23;;;6.97;;
11699;SDS011;5906;51.660;6.674;2022-12-07T15:48:16;6.93;;;6.23;;
11699;SDS011;5906;51.660;6.674;2022-12-07T15:51:14;7.53;;;6.40;;
11699;SDS011;5906;51.660;6.674;2022-12-07T15:54:11;7.93;;;6.60;;
11699;SDS011;5906;51.660;6.674;2022-12-07T15:57:09;12.23;;;6.73;;
11699;SDS011;5906;51.660;6.674;2022-12-07T15:59:56;12.17;;;6.80;;
11699;SDS011;5906;51.660;6.674;2022-12-07T16:02:44;11.43;;;7.67;;
11699;SDS011;5906;51.660;6.674;2022-12-07T16:05:31;9.23;;;6.80;;
11699;SDS011;5906;51.660;6.674;2022-12-07T16:08:20;8.90;;;7.23;;
11699;SDS011;5906;51.660;6.674;2022-12-07T16:11:08;7.10;;;6.20;;
11699;SDS011;5906;51.660;6.674;2022-12-07T16:13:55;10.67;;;6.50;;
11699;SDS011;5906;51.660;6.674;2022-12-07T16:16:43;10.53;;;7.03;;
11699;SDS011;5906;51.660;6.674;2022-12-07T16:19:31;11.53;;;7.77;;
11699;SDS011;5906;51.660;6.674;2022-12-07T16:22:19;16.00;;;6.73;;
11699;SDS011;5906;51.660;6.674;2022-12-07T16:25:06;9.63;;;6.67;;
11699;SDS011;5906;51.660;6.674;2022-12-07T16:27:53;11.40;;;7.20;;
11699;SDS011;5906;51.660;6.674;2022-12-07T16:30:41;10.23;;;6.87;;
11699;SDS011;5906;51.660;6.674;2022-12-07T16:33:28;10.43;;;6.43;;
11699;SDS011;5906;51.660;6.674;2022-12-07T16:36:16;10.73;;;7.17;;
11699;SDS011;5906;51.660;6.674;2022-12-07T16:39:23;13.33;;;7.47;;
11699;SDS011;5906;51.660;6.674;2022-12-07T16:42:11;8.57;;;7.37;;
11699;SDS011;5906;51.660;6.674;2022-12-07T16:44:58;13.97;;;8.37;;
11699;SDS011;5906;51.660;6.674;2022-12-07T16:47:46;10.40;;;8.07;;
11699;SDS011;5906;51.660;6.674;2022-12-07T16:50:33;10.03;;;7.47;;
11699;SDS011;5906;51.660;6.674;2022-12-07T16:53:22;9.80;;;6.07;;
11699;SDS011;5906;51.660;6.674;2022-12-07T16:56:11;14.50;;;7.93;;
11699;SDS011;5906;51.660;6.674;2022-12-07T16:58:59;9.43;;;6.77;;
11699;SDS011;5906;51.660;6.674;2022-12-07T17:01:48;10.30;;;6.80;;
11699;SDS011;5906;51.660;6.674;2022-12-07T17:04:35;12.13;;;6.53;;
11699;SDS011;5906;51.660;6.674;2022-12-07T17:07:24;11.00;;;7.50;;
11699;SDS011;5906;51.660;6.674;2022-12-07T17:10:11;12.00;;;7.70;;
11699;SDS011;5906;51.660;6.674;2022-12-07T17:12:58;8.40;;;6.80;;
11699;SDS011;5906;51.660;6.674;2022-12-07T17:15:53;9.13;;;7.30;;
11699;SDS011;5906;51.660;6.674;2022-12-07T17:18:59;9.20;;;6.23;;
11699;SDS011;5906;51.660;6.674;2022-12-07T17:21:46;10.60;;;6.50;;
11699;SDS011;5906;51.660;6.674;2022-12-07T17:24:34;9.50;;;8.13;;
11699;SDS011;5906;51.660;6.674;2022-12-07T17:27:21;10.00;;;8.27;;
11699;SDS011;5906;51.660;6.674;2022-12-07T17:30:09;10.93;;;8.67;;
11699;SDS011;5906;51.660;6.674;2022-12-07T17:32:58;13.03;;;6.33;;
11699;SDS011;5906;51.660;6.674;2022-12-07T17:35:46;7.53;;;6.57;;
11699;SDS011;5906;51.660;6.674;2022-12-07T17:38:34;12.30;;;8.37;;
11699;SDS011;5906;51.660;6.674;2022-12-07T17:41:25;9.60;;;7.23;;
11699;SDS011;5906;51.660;6.674;2022-12-07T17:44:34;7.57;;;6.77;;
11699;SDS011;5906;51.660;6.674;2022-12-07T17:47:21;12.83;;;6.73;;
11699;SDS011;5906;51.660;6.674;2022-12-07T17:50:09;7.80;;;6.90;;
11699;SDS011;5906;51.660;6.674;2022-12-07T17:52:56;7.00;;;5.93;;
11699;SDS011;5906;51.660;6.674;2022-12-07T17:55:58;6.30;;;5.80;;
11699;SDS011;5906;51.660;6.674;2022-12-07T17:59:06;8.40;;;5.73;;
11699;SDS011;5906;51.660;6.674;2022-12-07T18:01:53;12.33;;;6.97;;
11699;SDS011;5906;51.660;6.674;2022-12-07T18:04:41;8.80;;;7.90;;
11699;SDS011;5906;51.660;6.674;2022-12-07T18:07:28;11.30;;;10.20;;
11699;SDS011;5906;51.660;6.674;2022-12-07T18:10:15;7.67;;;6.97;;
11699;SDS011;5906;51.660;6.674;2022-12-07T18:13:06;7.70;;;7.00;;
11699;SDS011;5906;51.660;6.674;2022-12-07T18:16:14;8.70;;;7.00;;
11699;SDS011;5906;51.660;6.674;2022-12-07T18:19:10;17.73;;;6.40;;
11699;SDS011;5906;51.660;6.674;2022-12-07T18:22:00;12.53;;;7.87;;
11699;SDS011;5906;51.660;6.674;2022-12-07T18:24:47;8.57;;;7.87;;
11699;SDS011;5906;51.660;6.674;2022-12-07T18:27:34;9.10;;;6.90;;
11699;SDS011;5906;51.660;6.674;2022-12-07T18:30:22;7.23;;;6.60;;
11699;SDS011;5906;51.660;6.674;2022-12-07T18:33:29;8.03;;;7.23;;
11699;SDS011;5906;51.660;6.674;2022-12-07T18:36:16;7.77;;;6.80;;
11699;SDS011;5906;51.660;6.674;2022-12-07T18:39:04;7.53;;;6.83;;
11699;SDS011;5906;51.660;6.674;2022-12-07T18:41:52;7.50;;;6.70;;
11699;SDS011;5906;51.660;6.674;2022-12-07T18:44:39;8.63;;;7.30;;
11699;SDS011;5906;51.660;6.674;2022-12-07T18:47:27;7.37;;;6.63;;
11699;SDS011;5906;51.660;6.674;2022-12-07T18:50:14;12.20;;;7.50;;
11699;SDS011;5906;51.660;6.674;2022-12-07T18:53:02;10.73;;;7.93;;
11699;SDS011;5906;51.660;6.674;2022-12-07T18:55:50;10.70;;;8.70;;
11699;SDS011;5906;51.660;6.674;2022-12-07T18:58:49;10.60;;;9.13;;
11699;SDS011;5906;51.660;6.674;2022-12-07T19:01:57;12.40;;;9.00;;